SJLT weather

Milho Airport
Boa Vista, Roraima, Brazil

Public forecast

Using degrees Celsius for public forecast. Weather courtesy of forecast.io.

Closest aviation weather report (METAR) to Milho Airport

Closest report is Atlas Brasil Cantanhede Airport, 36.9 nm (68.3 km) SSW. Retrieved 2019/10/22 14:00 UTC (48 minutes ago):

SBBV 221400Z 07010KT 9999 BKN020 BKN070 29/21 Q1014

Closest aviation forecast (TAF) to Milho Airport

Closest forecast is Atlas Brasil Cantanhede Airport, 36.9 nm (68.3 km) SSW. Retrieved 2019/10/22 12:00 UTC (3 hours ago):

TAF SBBV 220900Z 2212/2312 08005KT 9999 FEW040 TX33/2218Z TN22/2310Z BECMG 2215/2217 BKN035 FEW040TCU PROB40 2219/2224 18010KT TS SCT030 FEW035CB BECMG 2300/2302 08003KT FEW045 RMK PGU